Wandering River, Canada
Current Conditions -  °F | °C
As of 12:26 PM on Thursday 27 Nov 2014 (Local Time) from CYZH Reporting Station
Light Snow Light Snow  
Wind Chill: -15°   Ceiling: 2400
Heat Index:   Visibility: 1mi
Dew Point: -4°   Wind: 8mph
Humidity: 85%   Direction: 50°NE
Pressure: 30.2"   Gusts: NA
Location:  55.2°N, 112.47°W
Report Text: CYZH 271926Z AUTO 05007KT 030V110 1SM -SN OVC024 M18/M20 A3020 RMK SLP278
Loading
Personal Weather Stations






























Interactive Weather Map New forecast layout! Learn more

10-Day Weather Forecast

Advertisements
Track Severe Weather on mobile